sensor_id;sensor_type;location;lat;lon;timestamp;P1;durP1;ratioP1;P2;durP2;ratioP2
67063;SDS011;58476;48.072;11.970;2023-09-18T00:01:34;3.75;;;2.78;;
67063;SDS011;58476;48.072;11.970;2023-09-18T00:04:00;3.60;;;2.83;;
67063;SDS011;58476;48.072;11.970;2023-09-18T00:06:25;5.03;;;3.13;;
67063;SDS011;58476;48.072;11.970;2023-09-18T00:08:50;3.60;;;2.67;;
67063;SDS011;58476;48.072;11.970;2023-09-18T00:11:15;3.58;;;2.90;;
67063;SDS011;58476;48.072;11.970;2023-09-18T00:13:41;4.93;;;2.80;;
67063;SDS011;58476;48.072;11.970;2023-09-18T00:16:06;3.58;;;3.08;;
67063;SDS011;58476;48.072;11.970;2023-09-18T00:18:31;4.03;;;3.03;;
67063;SDS011;58476;48.072;11.970;2023-09-18T00:20:57;4.78;;;2.88;;
67063;SDS011;58476;48.072;11.970;2023-09-18T00:23:22;4.65;;;3.13;;
67063;SDS011;58476;48.072;11.970;2023-09-18T00:25:47;5.80;;;2.80;;
67063;SDS011;58476;48.072;11.970;2023-09-18T00:28:13;5.53;;;2.90;;
67063;SDS011;58476;48.072;11.970;2023-09-18T00:30:39;3.97;;;2.90;;
67063;SDS011;58476;48.072;11.970;2023-09-18T00:33:11;4.60;;;3.17;;
67063;SDS011;58476;48.072;11.970;2023-09-18T00:35:36;5.50;;;3.00;;
67063;SDS011;58476;48.072;11.970;2023-09-18T00:38:02;3.15;;;2.80;;
67063;SDS011;58476;48.072;11.970;2023-09-18T00:40:27;4.15;;;2.70;;
67063;SDS011;58476;48.072;11.970;2023-09-18T00:42:53;4.22;;;2.75;;
67063;SDS011;58476;48.072;11.970;2023-09-18T00:45:20;3.83;;;2.97;;
67063;SDS011;58476;48.072;11.970;2023-09-18T00:47:45;4.63;;;2.83;;
67063;SDS011;58476;48.072;11.970;2023-09-18T00:50:11;4.25;;;2.97;;
67063;SDS011;58476;48.072;11.970;2023-09-18T00:52:37;5.28;;;3.17;;
67063;SDS011;58476;48.072;11.970;2023-09-18T00:55:04;4.68;;;2.60;;
67063;SDS011;58476;48.072;11.970;2023-09-18T00:57:32;3.00;;;2.65;;
67063;SDS011;58476;48.072;11.970;2023-09-18T00:59:58;3.67;;;2.88;;
67063;SDS011;58476;48.072;11.970;2023-09-18T01:02:23;3.72;;;2.83;;
67063;SDS011;58476;48.072;11.970;2023-09-18T01:04:49;3.38;;;2.88;;
67063;SDS011;58476;48.072;11.970;2023-09-18T01:07:14;5.07;;;2.80;;
67063;SDS011;58476;48.072;11.970;2023-09-18T01:09:40;4.28;;;3.17;;
67063;SDS011;58476;48.072;11.970;2023-09-18T01:12:12;4.65;;;2.92;;
67063;SDS011;58476;48.072;11.970;2023-09-18T01:17:12;3.72;;;2.78;;
67063;SDS011;58476;48.072;11.970;2023-09-18T01:19:45;3.80;;;2.83;;
67063;SDS011;58476;48.072;11.970;2023-09-18T01:22:15;3.55;;;2.80;;
67063;SDS011;58476;48.072;11.970;2023-09-18T01:24:41;4.60;;;2.72;;
67063;SDS011;58476;48.072;11.970;2023-09-18T01:27:09;3.20;;;2.70;;
67063;SDS011;58476;48.072;11.970;2023-09-18T01:29:36;3.38;;;2.40;;
67063;SDS011;58476;48.072;11.970;2023-09-18T01:32:01;4.22;;;2.58;;
67063;SDS011;58476;48.072;11.970;2023-09-18T01:34:46;4.47;;;2.90;;
67063;SDS011;58476;48.072;11.970;2023-09-18T01:37:14;3.22;;;2.42;;
67063;SDS011;58476;48.072;11.970;2023-09-18T01:39:41;3.92;;;2.40;;
67063;SDS011;58476;48.072;11.970;2023-09-18T01:42:07;3.63;;;2.60;;
67063;SDS011;58476;48.072;11.970;2023-09-18T01:44:33;2.67;;;2.30;;
67063;SDS011;58476;48.072;11.970;2023-09-18T01:46:59;4.00;;;2.78;;
67063;SDS011;58476;48.072;11.970;2023-09-18T01:49:34;3.47;;;2.78;;
67063;SDS011;58476;48.072;11.970;2023-09-18T01:52:00;5.07;;;2.60;;
67063;SDS011;58476;48.072;11.970;2023-09-18T01:54:26;3.22;;;2.33;;
67063;SDS011;58476;48.072;11.970;2023-09-18T01:56:52;3.75;;;2.65;;
67063;SDS011;58476;48.072;11.970;2023-09-18T01:59:18;3.67;;;2.67;;
67063;SDS011;58476;48.072;11.970;2023-09-18T02:01:44;3.97;;;2.50;;
67063;SDS011;58476;48.072;11.970;2023-09-18T02:04:09;3.45;;;2.30;;
67063;SDS011;58476;48.072;11.970;2023-09-18T02:06:34;3.45;;;2.58;;
67063;SDS011;58476;48.072;11.970;2023-09-18T02:09:00;3.47;;;2.30;;
67063;SDS011;58476;48.072;11.970;2023-09-18T02:11:25;3.25;;;2.55;;
67063;SDS011;58476;48.072;11.970;2023-09-18T02:13:50;3.33;;;2.58;;
67063;SDS011;58476;48.072;11.970;2023-09-18T02:16:16;3.95;;;2.28;;
67063;SDS011;58476;48.072;11.970;2023-09-18T02:18:41;2.78;;;2.35;;
67063;SDS011;58476;48.072;11.970;2023-09-18T02:21:07;3.38;;;2.40;;
67063;SDS011;58476;48.072;11.970;2023-09-18T02:23:32;3.63;;;2.38;;
67063;SDS011;58476;48.072;11.970;2023-09-18T02:25:58;3.17;;;2.58;;
67063;SDS011;58476;48.072;11.970;2023-09-18T02:28:23;3.03;;;2.40;;
67063;SDS011;58476;48.072;11.970;2023-09-18T02:30:49;2.95;;;2.50;;
67063;SDS011;58476;48.072;11.970;2023-09-18T02:33:15;2.90;;;2.45;;
67063;SDS011;58476;48.072;11.970;2023-09-18T02:35:41;2.97;;;2.40;;
67063;SDS011;58476;48.072;11.970;2023-09-18T02:38:06;3.08;;;2.60;;
67063;SDS011;58476;48.072;11.970;2023-09-18T02:40:31;3.67;;;2.60;;
67063;SDS011;58476;48.072;11.970;2023-09-18T02:42:57;3.47;;;2.30;;
67063;SDS011;58476;48.072;11.970;2023-09-18T02:45:22;3.05;;;2.33;;
67063;SDS011;58476;48.072;11.970;2023-09-18T02:47:48;3.85;;;2.35;;
67063;SDS011;58476;48.072;11.970;2023-09-18T02:50:13;3.00;;;2.30;;
67063;SDS011;58476;48.072;11.970;2023-09-18T02:52:39;3.28;;;2.33;;
67063;SDS011;58476;48.072;11.970;2023-09-18T02:55:04;3.08;;;2.17;;
67063;SDS011;58476;48.072;11.970;2023-09-18T02:57:30;2.65;;;2.40;;
67063;SDS011;58476;48.072;11.970;2023-09-18T02:59:56;3.38;;;2.40;;
67063;SDS011;58476;48.072;11.970;2023-09-18T03:02:21;4.40;;;2.50;;
67063;SDS011;58476;48.072;11.970;2023-09-18T03:04:47;3.13;;;2.35;;
67063;SDS011;58476;48.072;11.970;2023-09-18T03:07:13;4.40;;;2.30;;
67063;SDS011;58476;48.072;11.970;2023-09-18T03:09:38;5.60;;;2.70;;
67063;SDS011;58476;48.072;11.970;2023-09-18T03:12:03;3.13;;;2.50;;
67063;SDS011;58476;48.072;11.970;2023-09-18T03:14:29;4.00;;;2.40;;
67063;SDS011;58476;48.072;11.970;2023-09-18T03:16:55;4.22;;;2.25;;
67063;SDS011;58476;48.072;11.970;2023-09-18T03:19:20;4.25;;;2.60;;
67063;SDS011;58476;48.072;11.970;2023-09-18T03:21:47;3.33;;;2.40;;
67063;SDS011;58476;48.072;11.970;2023-09-18T03:24:13;3.55;;;2.28;;
67063;SDS011;58476;48.072;11.970;2023-09-18T03:26:38;3.42;;;2.22;;
67063;SDS011;58476;48.072;11.970;2023-09-18T03:29:03;3.53;;;2.20;;
67063;SDS011;58476;48.072;11.970;2023-09-18T03:31:29;2.80;;;2.28;;
67063;SDS011;58476;48.072;11.970;2023-09-18T03:33:55;3.47;;;2.40;;
67063;SDS011;58476;48.072;11.970;2023-09-18T03:36:21;5.10;;;2.35;;
67063;SDS011;58476;48.072;11.970;2023-09-18T03:38:47;4.55;;;2.50;;
67063;SDS011;58476;48.072;11.970;2023-09-18T03:41:12;2.70;;;2.22;;
67063;SDS011;58476;48.072;11.970;2023-09-18T03:43:38;6.25;;;2.42;;
67063;SDS011;58476;48.072;11.970;2023-09-18T03:46:04;3.33;;;2.47;;
67063;SDS011;58476;48.072;11.970;2023-09-18T03:48:32;2.83;;;2.30;;
67063;SDS011;58476;48.072;11.970;2023-09-18T03:50:58;2.97;;;2.28;;
67063;SDS011;58476;48.072;11.970;2023-09-18T03:53:23;3.33;;;2.15;;
67063;SDS011;58476;48.072;11.970;2023-09-18T03:55:49;2.85;;;2.30;;
67063;SDS011;58476;48.072;11.970;2023-09-18T03:58:14;3.70;;;2.08;;
67063;SDS011;58476;48.072;11.970;2023-09-18T04:00:39;3.22;;;2.40;;
67063;SDS011;58476;48.072;11.970;2023-09-18T04:03:06;2.42;;;2.10;;
67063;SDS011;58476;48.072;11.970;2023-09-18T04:05:32;5.95;;;2.40;;
67063;SDS011;58476;48.072;11.970;2023-09-18T04:07:57;2.88;;;2.25;;
67063;SDS011;58476;48.072;11.970;2023-09-18T04:10:22;3.58;;;2.20;;
67063;SDS011;58476;48.072;11.970;2023-09-18T04:12:49;5.00;;;2.60;;
67063;SDS011;58476;48.072;11.970;2023-09-18T04:15:14;4.03;;;2.28;;
67063;SDS011;58476;48.072;11.970;2023-09-18T04:17:40;5.28;;;2.40;;
67063;SDS011;58476;48.072;11.970;2023-09-18T04:20:05;3.78;;;2.25;;
67063;SDS011;58476;48.072;11.970;2023-09-18T04:22:31;10.30;;;2.65;;
67063;SDS011;58476;48.072;11.970;2023-09-18T04:24:56;5.53;;;2.38;;
67063;SDS011;58476;48.072;11.970;2023-09-18T04:27:22;7.07;;;2.40;;
67063;SDS011;58476;48.072;11.970;2023-09-18T04:29:47;7.88;;;2.40;;
67063;SDS011;58476;48.072;11.970;2023-09-18T04:32:13;6.45;;;2.47;;
67063;SDS011;58476;48.072;11.970;2023-09-18T04:34:38;8.80;;;2.22;;
67063;SDS011;58476;48.072;11.970;2023-09-18T04:37:03;6.53;;;3.00;;
67063;SDS011;58476;48.072;11.970;2023-09-18T04:39:29;5.03;;;2.35;;
67063;SDS011;58476;48.072;11.970;2023-09-18T04:41:54;9.95;;;2.50;;
67063;SDS011;58476;48.072;11.970;2023-09-18T04:44:20;12.18;;;2.60;;
67063;SDS011;58476;48.072;11.970;2023-09-18T04:46:46;9.85;;;2.40;;
67063;SDS011;58476;48.072;11.970;2023-09-18T04:49:11;7.13;;;3.03;;
67063;SDS011;58476;48.072;11.970;2023-09-18T04:51:37;5.13;;;2.50;;
67063;SDS011;58476;48.072;11.970;2023-09-18T04:54:03;3.65;;;2.92;;
67063;SDS011;58476;48.072;11.970;2023-09-18T04:56:29;10.65;;;2.45;;
67063;SDS011;58476;48.072;11.970;2023-09-18T04:58:54;6.90;;;2.78;;
67063;SDS011;58476;48.072;11.970;2023-09-18T05:01:20;8.85;;;2.63;;
67063;SDS011;58476;48.072;11.970;2023-09-18T05:03:47;7.07;;;2.58;;
67063;SDS011;58476;48.072;11.970;2023-09-18T05:06:12;9.93;;;2.47;;
67063;SDS011;58476;48.072;11.970;2023-09-18T05:08:38;4.40;;;2.38;;
67063;SDS011;58476;48.072;11.970;2023-09-18T05:11:03;9.68;;;2.58;;
67063;SDS011;58476;48.072;11.970;2023-09-18T05:13:28;6.90;;;2.60;;
67063;SDS011;58476;48.072;11.970;2023-09-18T05:15:54;6.28;;;2.30;;
67063;SDS011;58476;48.072;11.970;2023-09-18T05:18:19;4.35;;;2.45;;
67063;SDS011;58476;48.072;11.970;2023-09-18T05:20:44;5.75;;;2.53;;
67063;SDS011;58476;48.072;11.970;2023-09-18T05:23:10;4.32;;;2.20;;
67063;SDS011;58476;48.072;11.970;2023-09-18T05:27:35;6.68;;;2.38;;
67063;SDS011;58476;48.072;11.970;2023-09-18T05:30:01;5.57;;;2.42;;
67063;SDS011;58476;48.072;11.970;2023-09-18T05:32:26;5.03;;;2.20;;
67063;SDS011;58476;48.072;11.970;2023-09-18T05:34:52;4.63;;;2.75;;
67063;SDS011;58476;48.072;11.970;2023-09-18T05:37:17;38.22;;;9.38;;
67063;SDS011;58476;48.072;11.970;2023-09-18T05:39:42;55.05;;;10.13;;
67063;SDS011;58476;48.072;11.970;2023-09-18T05:42:08;20.65;;;4.60;;
67063;SDS011;58476;48.072;11.970;2023-09-18T05:44:33;12.93;;;4.03;;
67063;SDS011;58476;48.072;11.970;2023-09-18T05:46:58;15.10;;;4.55;;
67063;SDS011;58476;48.072;11.970;2023-09-18T05:49:24;15.52;;;3.95;;
67063;SDS011;58476;48.072;11.970;2023-09-18T05:51:49;13.10;;;3.50;;
67063;SDS011;58476;48.072;11.970;2023-09-18T05:54:14;12.15;;;3.70;;
67063;SDS011;58476;48.072;11.970;2023-09-18T05:56:40;11.90;;;3.75;;
67063;SDS011;58476;48.072;11.970;2023-09-18T05:59:05;13.65;;;3.67;;
67063;SDS011;58476;48.072;11.970;2023-09-18T06:01:30;10.68;;;3.60;;
67063;SDS011;58476;48.072;11.970;2023-09-18T06:03:56;12.25;;;3.40;;
67063;SDS011;58476;48.072;11.970;2023-09-18T06:06:21;17.35;;;3.65;;
67063;SDS011;58476;48.072;11.970;2023-09-18T06:08:46;10.80;;;3.33;;
67063;SDS011;58476;48.072;11.970;2023-09-18T06:11:12;12.77;;;3.67;;
67063;SDS011;58476;48.072;11.970;2023-09-18T06:13:37;8.10;;;2.85;;
67063;SDS011;58476;48.072;11.970;2023-09-18T06:16:02;7.38;;;2.80;;
67063;SDS011;58476;48.072;11.970;2023-09-18T06:18:30;9.07;;;3.00;;
67063;SDS011;58476;48.072;11.970;2023-09-18T06:20:55;8.40;;;3.20;;
67063;SDS011;58476;48.072;11.970;2023-09-18T06:23:21;6.53;;;2.72;;
67063;SDS011;58476;48.072;11.970;2023-09-18T06:25:46;8.80;;;2.80;;
67063;SDS011;58476;48.072;11.970;2023-09-18T06:28:11;9.40;;;2.97;;
67063;SDS011;58476;48.072;11.970;2023-09-18T06:30:37;7.72;;;2.85;;
67063;SDS011;58476;48.072;11.970;2023-09-18T06:33:02;7.13;;;2.45;;
67063;SDS011;58476;48.072;11.970;2023-09-18T06:35:28;7.20;;;2.75;;
67063;SDS011;58476;48.072;11.970;2023-09-18T06:37:53;5.43;;;2.50;;
67063;SDS011;58476;48.072;11.970;2023-09-18T06:40:18;10.70;;;2.90;;
67063;SDS011;58476;48.072;11.970;2023-09-18T06:42:44;6.53;;;2.85;;
67063;SDS011;58476;48.072;11.970;2023-09-18T06:45:11;5.60;;;2.60;;
67063;SDS011;58476;48.072;11.970;2023-09-18T06:47:36;7.15;;;2.80;;
67063;SDS011;58476;48.072;11.970;2023-09-18T06:50:01;9.63;;;3.38;;
67063;SDS011;58476;48.072;11.970;2023-09-18T06:52:27;6.70;;;2.63;;
67063;SDS011;58476;48.072;11.970;2023-09-18T06:54:53;8.48;;;2.92;;
67063;SDS011;58476;48.072;11.970;2023-09-18T06:57:18;5.90;;;2.67;;
67063;SDS011;58476;48.072;11.970;2023-09-18T06:59:44;5.28;;;2.60;;
67063;SDS011;58476;48.072;11.970;2023-09-18T07:02:09;5.93;;;2.60;;
67063;SDS011;58476;48.072;11.970;2023-09-18T07:04:35;5.35;;;2.60;;
67063;SDS011;58476;48.072;11.970;2023-09-18T07:07:00;4.78;;;2.50;;
67063;SDS011;58476;48.072;11.970;2023-09-18T07:09:25;4.93;;;2.70;;
67063;SDS011;58476;48.072;11.970;2023-09-18T07:11:51;7.40;;;2.50;;
67063;SDS011;58476;48.072;11.970;2023-09-18T07:14:17;6.20;;;2.67;;
67063;SDS011;58476;48.072;11.970;2023-09-18T07:16:42;4.55;;;2.55;;
67063;SDS011;58476;48.072;11.970;2023-09-18T07:19:08;5.28;;;2.35;;
67063;SDS011;58476;48.072;11.970;2023-09-18T07:21:33;6.05;;;2.78;;
67063;SDS011;58476;48.072;11.970;2023-09-18T07:23:59;6.13;;;2.30;;
67063;SDS011;58476;48.072;11.970;2023-09-18T07:26:24;6.85;;;2.58;;
67063;SDS011;58476;48.072;11.970;2023-09-18T07:28:49;7.53;;;2.80;;
67063;SDS011;58476;48.072;11.970;2023-09-18T07:31:14;3.97;;;2.30;;
67063;SDS011;58476;48.072;11.970;2023-09-18T07:33:40;4.97;;;2.60;;
67063;SDS011;58476;48.072;11.970;2023-09-18T07:36:06;6.82;;;2.50;;
67063;SDS011;58476;48.072;11.970;2023-09-18T07:38:31;4.45;;;2.22;;
67063;SDS011;58476;48.072;11.970;2023-09-18T07:40:57;5.20;;;2.67;;
67063;SDS011;58476;48.072;11.970;2023-09-18T07:43:23;8.80;;;2.47;;
67063;SDS011;58476;48.072;11.970;2023-09-18T07:45:49;4.57;;;2.53;;
67063;SDS011;58476;48.072;11.970;2023-09-18T07:48:14;4.82;;;2.45;;
67063;SDS011;58476;48.072;11.970;2023-09-18T07:50:42;9.57;;;2.85;;
67063;SDS011;58476;48.072;11.970;2023-09-18T07:53:08;7.88;;;2.83;;
67063;SDS011;58476;48.072;11.970;2023-09-18T07:55:33;5.47;;;2.28;;
67063;SDS011;58476;48.072;11.970;2023-09-18T07:57:59;7.30;;;2.40;;
67063;SDS011;58476;48.072;11.970;2023-09-18T08:00:24;6.63;;;2.50;;
67063;SDS011;58476;48.072;11.970;2023-09-18T08:02:49;8.88;;;3.30;;
67063;SDS011;58476;48.072;11.970;2023-09-18T08:05:15;7.88;;;2.42;;
67063;SDS011;58476;48.072;11.970;2023-09-18T08:07:41;4.95;;;2.25;;
67063;SDS011;58476;48.072;11.970;2023-09-18T08:10:07;6.10;;;2.50;;
67063;SDS011;58476;48.072;11.970;2023-09-18T08:12:33;8.18;;;2.85;;
67063;SDS011;58476;48.072;11.970;2023-09-18T08:14:58;5.35;;;2.55;;
67063;SDS011;58476;48.072;11.970;2023-09-18T08:17:24;6.32;;;2.55;;
67063;SDS011;58476;48.072;11.970;2023-09-18T08:19:50;4.55;;;2.30;;
67063;SDS011;58476;48.072;11.970;2023-09-18T08:22:16;6.65;;;2.65;;
67063;SDS011;58476;48.072;11.970;2023-09-18T08:24:42;4.82;;;2.60;;
67063;SDS011;58476;48.072;11.970;2023-09-18T08:27:07;10.02;;;2.60;;
67063;SDS011;58476;48.072;11.970;2023-09-18T08:29:33;4.97;;;2.42;;
67063;SDS011;58476;48.072;11.970;2023-09-18T08:31:58;3.05;;;2.20;;
67063;SDS011;58476;48.072;11.970;2023-09-18T08:34:23;3.15;;;2.13;;
67063;SDS011;58476;48.072;11.970;2023-09-18T08:36:49;5.65;;;2.40;;
67063;SDS011;58476;48.072;11.970;2023-09-18T08:39:14;6.85;;;2.35;;
67063;SDS011;58476;48.072;11.970;2023-09-18T08:41:41;5.88;;;2.38;;
67063;SDS011;58476;48.072;11.970;2023-09-18T08:44:08;4.45;;;2.47;;
67063;SDS011;58476;48.072;11.970;2023-09-18T08:46:33;4.70;;;2.45;;
67063;SDS011;58476;48.072;11.970;2023-09-18T08:48:59;5.47;;;2.45;;
67063;SDS011;58476;48.072;11.970;2023-09-18T08:51:25;5.53;;;2.40;;
67063;SDS011;58476;48.072;11.970;2023-09-18T08:53:51;8.52;;;2.25;;
67063;SDS011;58476;48.072;11.970;2023-09-18T08:56:19;6.65;;;2.67;;
67063;SDS011;58476;48.072;11.970;2023-09-18T08:58:46;8.80;;;2.63;;
67063;SDS011;58476;48.072;11.970;2023-09-18T09:01:12;6.78;;;2.35;;
67063;SDS011;58476;48.072;11.970;2023-09-18T09:03:40;11.65;;;2.53;;
67063;SDS011;58476;48.072;11.970;2023-09-18T09:06:07;8.47;;;2.30;;
67063;SDS011;58476;48.072;11.970;2023-09-18T09:08:34;7.78;;;2.20;;
67063;SDS011;58476;48.072;11.970;2023-09-18T09:10:59;4.32;;;2.20;;
67063;SDS011;58476;48.072;11.970;2023-09-18T09:13:25;5.53;;;2.60;;
67063;SDS011;58476;48.072;11.970;2023-09-18T09:15:50;10.73;;;2.50;;
67063;SDS011;58476;48.072;11.970;2023-09-18T09:18:17;7.65;;;2.40;;
67063;SDS011;58476;48.072;11.970;2023-09-18T09:21:01;5.35;;;2.47;;
67063;SDS011;58476;48.072;11.970;2023-09-18T09:23:29;7.57;;;2.45;;
67063;SDS011;58476;48.072;11.970;2023-09-18T09:26:12;4.38;;;2.35;;
67063;SDS011;58476;48.072;11.970;2023-09-18T09:28:39;7.40;;;2.60;;
67063;SDS011;58476;48.072;11.970;2023-09-18T09:31:04;6.95;;;2.40;;
67063;SDS011;58476;48.072;11.970;2023-09-18T09:33:29;4.15;;;2.40;;
67063;SDS011;58476;48.072;11.970;2023-09-18T09:35:55;6.45;;;2.53;;
67063;SDS011;58476;48.072;11.970;2023-09-18T09:38:27;9.52;;;3.10;;
67063;SDS011;58476;48.072;11.970;2023-09-18T09:40:54;3.70;;;2.20;;
67063;SDS011;58476;48.072;11.970;2023-09-18T09:43:19;8.65;;;2.92;;
67063;SDS011;58476;48.072;11.970;2023-09-18T09:45:46;7.65;;;2.50;;
67063;SDS011;58476;48.072;11.970;2023-09-18T09:48:11;5.57;;;2.30;;
67063;SDS011;58476;48.072;11.970;2023-09-18T09:50:47;4.05;;;2.20;;
67063;SDS011;58476;48.072;11.970;2023-09-18T09:53:13;5.43;;;2.50;;
67063;SDS011;58476;48.072;11.970;2023-09-18T09:55:39;8.57;;;2.35;;
67063;SDS011;58476;48.072;11.970;2023-09-18T09:58:06;5.65;;;2.88;;
67063;SDS011;58476;48.072;11.970;2023-09-18T10:00:33;5.93;;;2.50;;
67063;SDS011;58476;48.072;11.970;2023-09-18T10:03:03;7.55;;;2.33;;
67063;SDS011;58476;48.072;11.970;2023-09-18T10:05:31;8.48;;;2.40;;
67063;SDS011;58476;48.072;11.970;2023-09-18T10:10:32;8.50;;;2.45;;
67063;SDS011;58476;48.072;11.970;2023-09-18T10:13:00;4.28;;;2.40;;
67063;SDS011;58476;48.072;11.970;2023-09-18T10:15:31;7.00;;;2.30;;
67063;SDS011;58476;48.072;11.970;2023-09-18T10:17:59;6.07;;;2.20;;
67063;SDS011;58476;48.072;11.970;2023-09-18T10:20:27;8.75;;;2.97;;
67063;SDS011;58476;48.072;11.970;2023-09-18T10:22:56;4.70;;;2.30;;
67063;SDS011;58476;48.072;11.970;2023-09-18T10:25:24;5.70;;;2.17;;
67063;SDS011;58476;48.072;11.970;2023-09-18T10:27:54;5.82;;;2.40;;
67063;SDS011;58476;48.072;11.970;2023-09-18T10:30:21;4.22;;;2.42;;
67063;SDS011;58476;48.072;11.970;2023-09-18T10:33:12;3.13;;;2.30;;
67063;SDS011;58476;48.072;11.970;2023-09-18T10:35:38;6.65;;;2.40;;
67063;SDS011;58476;48.072;11.970;2023-09-18T10:38:03;5.07;;;2.38;;
67063;SDS011;58476;48.072;11.970;2023-09-18T10:40:31;6.20;;;2.30;;
67063;SDS011;58476;48.072;11.970;2023-09-18T10:42:59;5.18;;;2.42;;
67063;SDS011;58476;48.072;11.970;2023-09-18T10:45:29;5.72;;;2.75;;
67063;SDS011;58476;48.072;11.970;2023-09-18T10:47:55;5.28;;;2.53;;
67063;SDS011;58476;48.072;11.970;2023-09-18T10:50:22;5.22;;;2.50;;
67063;SDS011;58476;48.072;11.970;2023-09-18T10:52:48;4.85;;;2.50;;
67063;SDS011;58476;48.072;11.970;2023-09-18T10:55:14;4.32;;;2.40;;
67063;SDS011;58476;48.072;11.970;2023-09-18T10:57:52;6.35;;;3.00;;
67063;SDS011;58476;48.072;11.970;2023-09-18T11:00:19;6.57;;;2.53;;
67063;SDS011;58476;48.072;11.970;2023-09-18T11:02:45;3.78;;;2.25;;
67063;SDS011;58476;48.072;11.970;2023-09-18T11:05:11;6.65;;;2.65;;
67063;SDS011;58476;48.072;11.970;2023-09-18T11:07:36;4.43;;;2.30;;
67063;SDS011;58476;48.072;11.970;2023-09-18T11:10:24;4.07;;;2.38;;
67063;SDS011;58476;48.072;11.970;2023-09-18T11:12:51;6.65;;;2.40;;
67063;SDS011;58476;48.072;11.970;2023-09-18T11:15:31;7.47;;;2.42;;
67063;SDS011;58476;48.072;11.970;2023-09-18T11:18:00;6.82;;;2.33;;
67063;SDS011;58476;48.072;11.970;2023-09-18T11:20:27;11.82;;;2.83;;
67063;SDS011;58476;48.072;11.970;2023-09-18T11:25:55;5.68;;;2.30;;
67063;SDS011;58476;48.072;11.970;2023-09-18T11:30:48;8.98;;;2.75;;
67063;SDS011;58476;48.072;11.970;2023-09-18T11:33:29;7.35;;;2.38;;
67063;SDS011;58476;48.072;11.970;2023-09-18T11:35:55;5.68;;;2.40;;
67063;SDS011;58476;48.072;11.970;2023-09-18T11:38:21;6.95;;;2.45;;
67063;SDS011;58476;48.072;11.970;2023-09-18T11:40:46;7.93;;;2.42;;
67063;SDS011;58476;48.072;11.970;2023-09-18T11:43:25;8.52;;;3.00;;
67063;SDS011;58476;48.072;11.970;2023-09-18T11:45:54;6.65;;;2.80;;
67063;SDS011;58476;48.072;11.970;2023-09-18T11:48:24;4.80;;;2.28;;
67063;SDS011;58476;48.072;11.970;2023-09-18T11:50:51;8.90;;;2.53;;
67063;SDS011;58476;48.072;11.970;2023-09-18T11:53:17;8.10;;;2.33;;
67063;SDS011;58476;48.072;11.970;2023-09-18T11:55:43;7.32;;;2.45;;
67063;SDS011;58476;48.072;11.970;2023-09-18T11:58:08;6.53;;;2.70;;
67063;SDS011;58476;48.072;11.970;2023-09-18T12:00:34;9.43;;;2.60;;
67063;SDS011;58476;48.072;11.970;2023-09-18T12:03:11;10.52;;;2.38;;
67063;SDS011;58476;48.072;11.970;2023-09-18T12:05:39;8.00;;;2.40;;
67063;SDS011;58476;48.072;11.970;2023-09-18T12:08:04;4.63;;;2.15;;
67063;SDS011;58476;48.072;11.970;2023-09-18T12:10:30;14.10;;;2.75;;
67063;SDS011;58476;48.072;11.970;2023-09-18T12:12:55;6.07;;;2.20;;
67063;SDS011;58476;48.072;11.970;2023-09-18T12:15:21;8.05;;;2.35;;
67063;SDS011;58476;48.072;11.970;2023-09-18T12:17:46;11.70;;;2.40;;
67063;SDS011;58476;48.072;11.970;2023-09-18T12:20:18;19.85;;;2.50;;
67063;SDS011;58476;48.072;11.970;2023-09-18T12:22:46;7.47;;;2.22;;
67063;SDS011;58476;48.072;11.970;2023-09-18T12:25:13;6.15;;;2.60;;
67063;SDS011;58476;48.072;11.970;2023-09-18T12:27:40;5.57;;;2.78;;
67063;SDS011;58476;48.072;11.970;2023-09-18T12:30:06;9.80;;;2.40;;
67063;SDS011;58476;48.072;11.970;2023-09-18T12:32:33;10.18;;;2.47;;
67063;SDS011;58476;48.072;11.970;2023-09-18T12:35:02;7.78;;;2.30;;
67063;SDS011;58476;48.072;11.970;2023-09-18T12:37:27;10.30;;;2.30;;
67063;SDS011;58476;48.072;11.970;2023-09-18T12:39:52;7.85;;;2.10;;
67063;SDS011;58476;48.072;11.970;2023-09-18T12:42:18;7.90;;;2.72;;
67063;SDS011;58476;48.072;11.970;2023-09-18T12:44:46;9.13;;;2.40;;
67063;SDS011;58476;48.072;11.970;2023-09-18T12:47:13;8.10;;;2.10;;
67063;SDS011;58476;48.072;11.970;2023-09-18T12:49:39;4.75;;;2.00;;
67063;SDS011;58476;48.072;11.970;2023-09-18T12:52:04;7.82;;;2.35;;
67063;SDS011;58476;48.072;11.970;2023-09-18T12:54:39;4.90;;;1.90;;
67063;SDS011;58476;48.072;11.970;2023-09-18T12:57:06;5.93;;;2.20;;
67063;SDS011;58476;48.072;11.970;2023-09-18T12:59:33;4.85;;;2.00;;
67063;SDS011;58476;48.072;11.970;2023-09-18T13:01:59;10.32;;;2.30;;
67063;SDS011;58476;48.072;11.970;2023-09-18T13:04:25;4.93;;;2.05;;
67063;SDS011;58476;48.072;11.970;2023-09-18T13:10:05;5.63;;;1.90;;
67063;SDS011;58476;48.072;11.970;2023-09-18T13:15:06;3.47;;;1.70;;
67063;SDS011;58476;48.072;11.970;2023-09-18T13:17:38;7.70;;;1.98;;
67063;SDS011;58476;48.072;11.970;2023-09-18T13:22:47;8.90;;;2.10;;
67063;SDS011;58476;48.072;11.970;2023-09-18T13:25:18;9.50;;;2.20;;
67063;SDS011;58476;48.072;11.970;2023-09-18T13:27:45;9.18;;;2.00;;
67063;SDS011;58476;48.072;11.970;2023-09-18T13:30:10;4.53;;;1.67;;
67063;SDS011;58476;48.072;11.970;2023-09-18T13:32:36;7.50;;;1.77;;
67063;SDS011;58476;48.072;11.970;2023-09-18T13:35:02;5.22;;;1.50;;
67063;SDS011;58476;48.072;11.970;2023-09-18T13:37:28;7.50;;;1.70;;
67063;SDS011;58476;48.072;11.970;2023-09-18T13:39:54;6.65;;;1.60;;
67063;SDS011;58476;48.072;11.970;2023-09-18T13:42:19;5.70;;;1.67;;
67063;SDS011;58476;48.072;11.970;2023-09-18T13:44:44;5.03;;;1.50;;
67063;SDS011;58476;48.072;11.970;2023-09-18T13:47:10;7.63;;;1.90;;
67063;SDS011;58476;48.072;11.970;2023-09-18T13:49:35;6.13;;;1.58;;
67063;SDS011;58476;48.072;11.970;2023-09-18T13:52:00;5.55;;;1.65;;
67063;SDS011;58476;48.072;11.970;2023-09-18T13:54:26;7.40;;;1.83;;
67063;SDS011;58476;48.072;11.970;2023-09-18T13:56:51;3.50;;;1.80;;
67063;SDS011;58476;48.072;11.970;2023-09-18T13:59:16;5.88;;;1.70;;
67063;SDS011;58476;48.072;11.970;2023-09-18T14:01:42;4.78;;;1.73;;
67063;SDS011;58476;48.072;11.970;2023-09-18T14:04:07;4.10;;;1.50;;
67063;SDS011;58476;48.072;11.970;2023-09-18T14:06:32;6.63;;;1.67;;
67063;SDS011;58476;48.072;11.970;2023-09-18T14:08:58;7.40;;;1.50;;
67063;SDS011;58476;48.072;11.970;2023-09-18T14:11:23;5.43;;;1.35;;
67063;SDS011;58476;48.072;11.970;2023-09-18T14:13:48;5.75;;;1.50;;
67063;SDS011;58476;48.072;11.970;2023-09-18T14:16:13;3.92;;;1.30;;
67063;SDS011;58476;48.072;11.970;2023-09-18T14:18:39;4.30;;;1.50;;
67063;SDS011;58476;48.072;11.970;2023-09-18T14:21:04;5.63;;;1.27;;
67063;SDS011;58476;48.072;11.970;2023-09-18T14:23:29;3.15;;;1.40;;
67063;SDS011;58476;48.072;11.970;2023-09-18T14:25:55;4.55;;;1.30;;
67063;SDS011;58476;48.072;11.970;2023-09-18T14:28:20;5.50;;;2.10;;
67063;SDS011;58476;48.072;11.970;2023-09-18T14:30:45;6.07;;;1.52;;
67063;SDS011;58476;48.072;11.970;2023-09-18T14:33:11;7.22;;;1.42;;
67063;SDS011;58476;48.072;11.970;2023-09-18T14:35:36;2.92;;;1.40;;
67063;SDS011;58476;48.072;11.970;2023-09-18T14:38:01;3.83;;;1.55;;
67063;SDS011;58476;48.072;11.970;2023-09-18T14:40:27;6.63;;;1.48;;
67063;SDS011;58476;48.072;11.970;2023-09-18T14:42:52;6.55;;;1.60;;
67063;SDS011;58476;48.072;11.970;2023-09-18T14:45:17;4.68;;;1.55;;
67063;SDS011;58476;48.072;11.970;2023-09-18T14:47:43;3.95;;;1.40;;
67063;SDS011;58476;48.072;11.970;2023-09-18T14:50:08;5.50;;;1.20;;